Nearby METAR Reports

 

KMTN - Baltimore/Martin, Maryland, USA
Distance from station: SSE 8mi, 13km
Updated: Fri, 19-Dec-2014 2:54am EST
Overcast
Overcast
 Wind from W
Wind: W 8 mph , 13 km/h
Temperature: 36°F , 2°C
Wind Chill: 30°F , -1°C
Dew Point: 27°F , -3°C
Humidity: 70%
Barometer: 30.12 inHg , 1020 hPa
Clouds: Overcast
Visibility: 10 miles , 16 km
Cloud details: Overcast 3300 ft
2014/12/19 07:54 KMTN 190754Z AUTO 26007KT 10SM OVC033 02/M03 A3012 RMK AO2
KDMH - Baltimore/Dwntwn, Maryland, USA
Distance from station: SW 12mi, 19km
Updated: Fri, 19-Dec-2014 1:54am EST

 
Temperature: 36°F , 2°C
Dew Point: 23°F , -5°C
Humidity: 60%
Barometer: 30.09 inHg , 1019 hPa
2014/12/19 06:54 KDMH 190654Z AUTO 02/M05 A3009 RMK AO1 SLP190 T00221050
 
KBWI - Balto/Wash Intl, Maryland, USA
Distance from station: SSW 20mi, 33km
Updated: Fri, 19-Dec-2014 1:54am EST
Overcast
Overcast
 Wind from W
Wind: W 8 mph , 13 km/h
Temperature: 34°F , 1°C
Wind Chill: 27°F , -3°C
Dew Point: 23°F , -5°C
Humidity: 65%
Barometer: 30.09 inHg , 1019 hPa
Clouds: Overcast
Visibility: 10 miles , 16 km
Cloud details: Partly cloudy 3300 ft
Overcast 10000 ft
2014/12/19 06:54 KBWI 190654Z 28007KT 10SM SCT033 OVC100 01/M05 A3009 RMK AO2 SLP190 T00111050
KDMW - Carroll Cnty, Maryland, USA
Distance from station: WNW 30mi, 48km
Updated: Fri, 19-Dec-2014 2:50am EST
Overcast
Overcast
 Wind from WNW
Wind: WNW 8 mph , 13 km/h
Temperature: 32°F , 0°C
Wind Chill: 25°F , -4°C
Dew Point: 25°F , -4°C
Humidity: 75%
Barometer: 30.07 inHg , 1018.3 hPa
Clouds: Overcast
Visibility: 10 miles , 16 km
Cloud details: Overcast 2600 ft
2014/12/19 07:50 KDMW 190750Z AUTO 29007KT 10SM OVC026 00/M04 A3007 RMK AO2
 
KNAK - Annapolis/Naval, Maryland, USA
Distance from station: S 30mi, 48km
Updated: Fri, 19-Dec-2014 1:54am EST
Overcast
Overcast
 Wind from W
Wind: W 6 mph , 9 km/h
Temperature: 36°F , 2°C
Wind Chill: 31°F , -1°C
Dew Point: 23°F , -5°C
Humidity: 60%
Barometer: 30.10 inHg , 1019.3 hPa
Clouds: Overcast
Visibility: 10 miles , 16 km
Cloud details: Overcast 11000 ft
2014/12/19 06:54 KNAK 190654Z AUTO 28005KT 10SM OVC110 02/M05 A3010 RMK AO2 SLP193 T00171050 $
KW29 - Stevensville, Maryland, USA
Distance from station: SSE 31mi, 50km
Updated: Fri, 19-Dec-2014 2:52am EST

 Wind from WNW
Wind: WNW 9 mph , 15 km/h
Temperature: 36°F , 2°C
Wind Chill: 29°F , -2°C
Dew Point: 25°F , -4°C
Humidity: 65%
Barometer: 30.11 inHg , 1019.6 hPa
Visibility: 10 miles , 16 km
2014/12/19 07:52 KW29 190752Z AUTO 29008KT 10SM 02/M04 A3011 RMK AO1
 
KCGS - College Park, Maryland, USA
Distance from station: SW 38mi, 61km
Updated: Fri, 19-Dec-2014 2:50am EST
Overcast
Overcast
 Wind from W
Wind: W 6 mph , 9 km/h
Temperature: 36°F , 2°C
Wind Chill: 31°F , -1°C
Dew Point: 25°F , -4°C
Humidity: 65%
Barometer: 30.12 inHg , 1020 hPa
Clouds: Overcast
Visibility: 10 miles , 16 km
Cloud details: Overcast 11000 ft
2014/12/19 07:50 KCGS 190750Z AUTO 28005KT 10SM OVC110 02/M04 A3012 RMK AO1
KGAI - Gaithersburg, Maryland, USA
Distance from station: WSW 40mi, 65km
Updated: Fri, 19-Dec-2014 2:35am EST
Overcast
Overcast
 Wind from WNW
Wind: WNW 10 mph , 17 km/h
Temperature: 32°F , 0°C
Wind Chill: 24°F , -4°C
Dew Point: 21°F , -6°C
Humidity: 64%
Barometer: 30.13 inHg , 1020.3 hPa
Clouds: Overcast
Visibility: 10 miles , 16 km
Cloud details: Partly cloudy 7500 ft
Overcast 9000 ft
2014/12/19 07:35 KGAI 190735Z 30009KT 10SM SCT075 OVC090 00/M06 A3013 RMK AO1
 
KTHV - York, Pennsylvania, USA
Distance from station: NNW 40mi, 65km
Updated: Fri, 19-Dec-2014 1:53am EST
Overcast
Overcast
 Wind from WNW
Wind: WNW 8 mph , 13 km/h
Temperature: 34°F , 1°C
Wind Chill: 27°F , -3°C
Dew Point: 25°F , -4°C
Humidity: 70%
Barometer: 30.07 inHg , 1018.3 hPa
Clouds: Overcast
Visibility: 10 miles , 16 km
Cloud details: Overcast 2600 ft
2014/12/19 06:53 KTHV 190653Z AUTO 30007KT 10SM OVC026 01/M04 A3007 RMK AO2 SLP188 T00111044
KFDK - Frederick, Maryland, USA
Distance from station: W 47mi, 75km
Updated: Fri, 19-Dec-2014 2:30am EST
Overcast
Overcast
 Wind from W
Wind: W 6 mph , 9 km/h
Temperature: 34°F , 1°C
Wind Chill: 29°F , -2°C
Dew Point: 23°F , -5°C
Humidity: 65%
Barometer: 30.14 inHg , 1020.7 hPa
Clouds: Overcast
Visibility: 10 miles , 16 km
Cloud details: Overcast 3100 ft
2014/12/19 07:30 KFDK 190730Z AUTO 28005KT 10SM OVC031 01/M05 A3014 RMK AO2
 
KESN - Easton/Newnam, Maryland, USA
Distance from station: SSE 48mi, 78km
Updated: Fri, 19-Dec-2014 3:06am EST
Partly cloudy
Partly cloudy
 Wind from NW
Wind: NW 7 mph , 11 km/h
Temperature: 37°F , 3°C
Wind Chill: 32°F , 0°C
Dew Point: 28°F , -2°C
Humidity: 70%
Barometer: 30.13 inHg , 1020.3 hPa
Clouds: Partly cloudy
Visibility: 10 miles , 16 km
Cloud details: Partly cloudy 3400 ft
2014/12/19 08:06 KESN 190806Z AUTO 32006KT 10SM SCT034 03/M02 A3013 RMK AO2 T00281025
KDCA - Washington/Natl, Washington D.c., USA
Distance from station: SW 49mi, 79km
Updated: Fri, 19-Dec-2014 2:52am EST
Overcast
Overcast
 Wind from WNW
Wind: WNW 7 mph , 11 km/h
Temperature: 37°F , 3°C
Wind Chill: 32°F , 0°C
Dew Point: 21°F , -6°C
Humidity: 52%
Barometer: 30.14 inHg , 1020.7 hPa
Clouds: Overcast
Visibility: 10 miles , 16 km
Cloud details: Few Clouds 3500 ft
Overcast 10000 ft
2014/12/19 07:52 KDCA 190752Z 29006KT 10SM FEW035 OVC100 03/M06 A3014 RMK AO2 SLP205 T00331061
 
KLNS - Lancaster, Pennsylvania, USA
Distance from station: N 49mi, 79km
Updated: Fri, 19-Dec-2014 1:53am EST
Overcast
Overcast
 Wind from W
Wind: W 14 mph , 22 km/h
Temperature: 34°F , 1°C
Wind Chill: 25°F , -4°C
Dew Point: 25°F , -4°C
Humidity: 70%
Barometer: 30.04 inHg , 1017.3 hPa
Clouds: Overcast
Visibility: 10 miles , 16 km
Cloud details: Overcast 3100 ft
2014/12/19 06:53 KLNS 190653Z AUTO 28012KT 10SM OVC031 01/M04 A3004 RMK AO2 SLP177 T00111044
KILG - Wilmington, Delaware, USA
Distance from station: ENE 50mi, 81km
Updated: Fri, 19-Dec-2014 2:51am EST
Overcast
Overcast
 Wind from WNW
Wind: WNW 13 mph , 20 km/h
Temperature: 36°F , 2°C
Wind Chill: 27°F , -3°C
Dew Point: 25°F , -4°C
Humidity: 65%
Barometer: 30.07 inHg , 1018.3 hPa
Clouds: Overcast
Visibility: 10 miles , 16 km
Cloud details: Overcast 3500 ft
2014/12/19 07:51 KILG 190751Z 29011KT 10SM OVC035 02/M04 A3007 RMK AO2 SLP183 T00221039